METAR AND TAF INFORMATION
METAR FOR LIPQ
ADDS - METARS form results

(2242 UTC 16 June 2019)
Data provider http://aviationweather.gov/metar/data/
 
METAR text: LIPQ 162220Z AUTO 09014G26KT 9999 NCD 26/15 Q1014
Conditions at: LIPQ (RONCHI LEGIONARI, IT) observed 2220 UTC 16 June 2019
Temperature: 26.0°C (79°F)
Dewpoint: 15.0°C (59°F) [RH = 51%]
Pressure (altimeter): 29.94 inches Hg (1014.0 mb)
Winds: from the E (90 degrees) at 16 MPH (14 knots; 7.2 m/s)
gusting to 30 MPH (26 knots; 13.4 m/s)
Visibility: 6 or more miles (10+ km)
Ceiling: at least 12,000 feet AGL
Clouds: sky clear below 12,000 feet AGL
Weather: no significant weather observed at this time

METAR text: LIPQ 162150Z 08010KT 050V120 CAVOK 27/13 Q1014
Conditions at: LIPQ (RONCHI LEGIONARI, IT) observed 2150 UTC 16 June 2019
Temperature: 27.0°C (81°F)
Dewpoint: 13.0°C (55°F) [RH = 42%]
Pressure (altimeter): 29.94 inches Hg (1014.0 mb)
Winds: from the E (80 degrees) at 12 MPH (10 knots; 5.1 m/s)
Visibility: 6 or more miles (10+ km)
Ceiling: ceiling and visibility are OK
Clouds: unknown
Weather: no significant weather observed at this time

Forecast for: LIPQ (RONCHI LEGIONARI, IT)
Text: TAF LIPQ 161700Z 1618/1718 VRB05KT CAVOK
Forecast period: 1800 to 1900 UTC 16 June 2019
Forecast type: FROM: standard forecast or significant change
Winds: variable direction winds at 6 MPH (5 knots; 2.6 m/s)
Visibility: 6 or more miles 10+ km)
Ceiling: unknown
Clouds: missing
Weather: NSW  (no significant weather)
Text: BECMG 1619/1621 08010KT
Forecast period: 1900 UTC 16 June 2019 to 0600 UTC 17 June 2019
Forecast type: BECOMING: Conditions expected to become as follows by 2100 UTC 16 June 2019
Winds: from the E (80 degrees) at 12 MPH (10 knots; 5.1 m/s)
Visibility: 6 or more miles 10+ km)
Ceiling: unknown
Clouds: missing
Weather: NSW  (no significant weather)
Text: BECMG 1706/1708 VRB05KT
Forecast period: 0600 to 1800 UTC 17 June 2019
Forecast type: BECOMING: Conditions expected to become as follows by 0800 UTC 17 June 2019
Winds: variable direction winds at 6 MPH (5 knots; 2.6 m/s)
Visibility: 6 or more miles 10+ km)
Ceiling: unknown
Clouds: missing
Weather: NSW  (no significant weather)
Text: TEMPO 1710/1718 4000 TSRA
Forecast period: 1000 to 1800 UTC 17 June 2019
Forecast type: TEMPORARY: The following changes expected for less than half the time period
Visibility: 2.49 miles (4.01 km)
Ceiling: unknown
Clouds: missing
Weather: TSRA  (rain associated with thunderstorm(s))

 AIRPORT MAP

 RUNWAY INFORMATION
Runway 09 Runway length 9843 ft Runway width 148 ft
Runway elevation 37 ft Runway displaced threshold 656 ft Runway heading 90
Runway 27 Runway length 9843 ft Runway width 148 ft
Runway elevation 36 ft Runway displaced threshold 0 ft Runway heading 270

 AIRPORT FREQUENCIES
Type APP Name APP Frequency 119.175 MHZ
Type TWR Name TWR Frequency 130.2 MHZ

 AIRPORT NEAR NAVIGATION AIDS
Type VOR-DME Name Ronchi Frequency 114200 KHZ
Type NDB Name Ronchi Frequency 396 KHZ